sensor_id;sensor_type;location;lat;lon;timestamp;pressure;altitude;pressure_sealevel;temperature;humidity
75886;BME280;64561;44.018;10.144;2023-06-14T00:00:54;100945.69;;;18.69;92.91
75886;BME280;64561;44.018;10.144;2023-06-14T00:03:26;100936.22;;;18.65;92.81
75886;BME280;64561;44.018;10.144;2023-06-14T00:05:53;100927.59;;;18.62;93.48
75886;BME280;64561;44.018;10.144;2023-06-14T00:08:20;100928.47;;;18.62;93.03
75886;BME280;64561;44.018;10.144;2023-06-14T00:10:49;100932.75;;;18.66;93.25
75886;BME280;64561;44.018;10.144;2023-06-14T00:13:16;100928.41;;;18.67;91.61
75886;BME280;64561;44.018;10.144;2023-06-14T00:15:43;100937.00;;;18.81;90.48
75886;BME280;64561;44.018;10.144;2023-06-14T00:18:10;100933.66;;;18.62;92.65
75886;BME280;64561;44.018;10.144;2023-06-14T00:20:42;100934.53;;;18.60;93.37
75886;BME280;64561;44.018;10.144;2023-06-14T00:23:09;100935.38;;;18.60;93.79
75886;BME280;64561;44.018;10.144;2023-06-14T00:25:37;100932.78;;;18.63;94.21
75886;BME280;64561;44.018;10.144;2023-06-14T00:28:04;100931.91;;;18.63;94.53
75886;BME280;64561;44.018;10.144;2023-06-14T00:30:31;100932.75;;;18.66;94.20
75886;BME280;64561;44.018;10.144;2023-06-14T00:32:58;100924.09;;;18.67;94.11
75886;BME280;64561;44.018;10.144;2023-06-14T00:35:26;100915.50;;;18.65;94.60
75886;BME280;64561;44.018;10.144;2023-06-14T00:37:53;100917.16;;;18.69;93.37
75886;BME280;64561;44.018;10.144;2023-06-14T00:40:22;100902.47;;;18.73;92.06
75886;BME280;64561;44.018;10.144;2023-06-14T00:42:49;100903.31;;;18.70;92.86
75886;BME280;64561;44.018;10.144;2023-06-14T00:45:17;100905.03;;;18.76;92.80
75886;BME280;64561;44.018;10.144;2023-06-14T00:47:45;100900.75;;;18.75;93.08
75886;BME280;64561;44.018;10.144;2023-06-14T00:50:13;100893.81;;;18.74;93.96
75886;BME280;64561;44.018;10.144;2023-06-14T00:52:40;100899.00;;;18.76;94.10
75886;BME280;64561;44.018;10.144;2023-06-14T00:55:08;100887.78;;;18.73;94.12
75886;BME280;64561;44.018;10.144;2023-06-14T00:57:35;100885.16;;;18.77;94.33
75886;BME280;64561;44.018;10.144;2023-06-14T01:00:05;100882.56;;;18.77;94.08
75886;BME280;64561;44.018;10.144;2023-06-14T01:02:54;100872.22;;;18.70;93.83
75886;BME280;64561;44.018;10.144;2023-06-14T01:05:22;100877.50;;;18.63;94.80
75886;BME280;64561;44.018;10.144;2023-06-14T01:11:11;100870.53;;;18.66;95.17
75886;BME280;64561;44.018;10.144;2023-06-14T01:13:43;100866.19;;;18.70;95.24
75886;BME280;64561;44.018;10.144;2023-06-14T01:16:16;100872.25;;;18.67;95.11
75886;BME280;64561;44.018;10.144;2023-06-14T01:18:53;100867.94;;;18.65;95.59
75886;BME280;64561;44.018;10.144;2023-06-14T01:21:24;100863.63;;;18.67;95.83
75886;BME280;64561;44.018;10.144;2023-06-14T01:23:52;100867.03;;;18.70;95.22
75886;BME280;64561;44.018;10.144;2023-06-14T01:26:21;100860.13;;;18.69;94.73
75886;BME280;64561;44.018;10.144;2023-06-14T01:28:51;100855.81;;;18.71;94.40
75886;BME280;64561;44.018;10.144;2023-06-14T01:31:25;100855.81;;;18.71;94.83
75886;BME280;64561;44.018;10.144;2023-06-14T01:33:54;100856.66;;;18.73;94.93
75886;BME280;64561;44.018;10.144;2023-06-14T01:36:25;100847.13;;;18.77;95.09
75886;BME280;64561;44.018;10.144;2023-06-14T01:38:58;100851.44;;;18.81;94.46
75886;BME280;64561;44.018;10.144;2023-06-14T01:41:27;100856.59;;;18.81;94.34
75886;BME280;64561;44.018;10.144;2023-06-14T01:43:55;100856.59;;;18.84;95.00
75886;BME280;64561;44.018;10.144;2023-06-14T01:46:23;100854.84;;;18.86;95.34
75886;BME280;64561;44.018;10.144;2023-06-14T01:48:53;100855.66;;;18.88;95.53
75886;BME280;64561;44.018;10.144;2023-06-14T01:51:20;100849.66;;;18.85;95.37
75886;BME280;64561;44.018;10.144;2023-06-14T01:53:48;100849.66;;;18.83;95.20
75886;BME280;64561;44.018;10.144;2023-06-14T01:56:15;100851.38;;;18.83;95.53
75886;BME280;64561;44.018;10.144;2023-06-14T01:58:43;100858.31;;;18.82;95.34
75886;BME280;64561;44.018;10.144;2023-06-14T02:01:10;100853.16;;;18.81;94.83
75886;BME280;64561;44.018;10.144;2023-06-14T02:03:39;100845.38;;;18.81;95.06
75886;BME280;64561;44.018;10.144;2023-06-14T02:06:06;100841.06;;;18.80;94.77
75886;BME280;64561;44.018;10.144;2023-06-14T02:08:33;100841.91;;;18.80;94.93
75886;BME280;64561;44.018;10.144;2023-06-14T02:11:00;100842.84;;;18.73;95.26
75886;BME280;64561;44.018;10.144;2023-06-14T02:13:27;100843.72;;;18.69;94.94
75886;BME280;64561;44.018;10.144;2023-06-14T02:15:55;100846.31;;;18.69;95.28
75886;BME280;64561;44.018;10.144;2023-06-14T02:18:23;100841.97;;;18.72;95.50
75886;BME280;64561;44.018;10.144;2023-06-14T02:21:10;100841.97;;;18.76;95.60
75886;BME280;64561;44.018;10.144;2023-06-14T02:23:37;100846.28;;;18.77;95.30
75886;BME280;64561;44.018;10.144;2023-06-14T02:26:04;100850.50;;;18.85;93.15
75886;BME280;64561;44.018;10.144;2023-06-14T02:28:33;100853.16;;;18.81;93.21
75886;BME280;64561;44.018;10.144;2023-06-14T02:31:02;100854.06;;;18.73;94.66
75886;BME280;64561;44.018;10.144;2023-06-14T02:33:29;100860.09;;;18.71;94.98
75886;BME280;64561;44.018;10.144;2023-06-14T02:35:57;100854.94;;;18.72;95.55
75886;BME280;64561;44.018;10.144;2023-06-14T02:38:24;100853.22;;;18.75;95.52
75886;BME280;64561;44.018;10.144;2023-06-14T02:40:51;100849.75;;;18.72;95.48
75886;BME280;64561;44.018;10.144;2023-06-14T02:43:19;100865.31;;;18.69;95.35
75886;BME280;64561;44.018;10.144;2023-06-14T02:45:46;100857.53;;;18.69;95.39
75886;BME280;64561;44.018;10.144;2023-06-14T02:48:13;100857.53;;;18.69;95.30
75886;BME280;64561;44.018;10.144;2023-06-14T02:50:41;100862.75;;;18.65;94.77
75886;BME280;64561;44.018;10.144;2023-06-14T02:53:08;100861.72;;;18.86;93.04
75886;BME280;64561;44.018;10.144;2023-06-14T02:55:35;100866.94;;;18.83;92.44
75886;BME280;64561;44.018;10.144;2023-06-14T02:58:07;100861.75;;;18.83;91.30
75886;BME280;64561;44.018;10.144;2023-06-14T03:00:34;100863.66;;;18.62;93.76
75886;BME280;64561;44.018;10.144;2023-06-14T03:03:04;100865.47;;;18.51;94.98
75886;BME280;64561;44.018;10.144;2023-06-14T03:05:33;100861.94;;;18.61;93.00
75886;BME280;64561;44.018;10.144;2023-06-14T03:08:00;100866.28;;;18.56;93.37
75886;BME280;64561;44.018;10.144;2023-06-14T03:10:27;100853.38;;;18.51;94.79
75886;BME280;64561;44.018;10.144;2023-06-14T03:12:58;100868.91;;;18.53;95.66
75886;BME280;64561;44.018;10.144;2023-06-14T03:15:25;100867.16;;;18.57;95.92
75886;BME280;64561;44.018;10.144;2023-06-14T03:17:52;100863.66;;;18.61;96.09
75886;BME280;64561;44.018;10.144;2023-06-14T03:20:20;100859.34;;;18.63;96.26
75886;BME280;64561;44.018;10.144;2023-06-14T03:22:48;100867.13;;;18.63;95.88
75886;BME280;64561;44.018;10.144;2023-06-14T03:25:15;100862.78;;;18.62;95.84
75886;BME280;64561;44.018;10.144;2023-06-14T03:27:45;100862.78;;;18.63;95.86
75886;BME280;64561;44.018;10.144;2023-06-14T03:30:12;100861.06;;;18.62;95.96
75886;BME280;64561;44.018;10.144;2023-06-14T03:32:42;100866.25;;;18.61;95.74
75886;BME280;64561;44.018;10.144;2023-06-14T03:35:09;100866.25;;;18.61;95.89
75886;BME280;64561;44.018;10.144;2023-06-14T03:37:45;100874.00;;;18.64;96.15
75886;BME280;64561;44.018;10.144;2023-06-14T03:40:13;100861.03;;;18.67;96.37
75886;BME280;64561;44.018;10.144;2023-06-14T03:42:43;100861.00;;;18.70;96.40
75886;BME280;64561;44.018;10.144;2023-06-14T03:45:11;100858.44;;;18.68;95.97
75886;BME280;64561;44.018;10.144;2023-06-14T03:47:38;100855.00;;;18.63;95.67
75886;BME280;64561;44.018;10.144;2023-06-14T03:50:06;100861.06;;;18.61;96.07
75886;BME280;64561;44.018;10.144;2023-06-14T03:52:34;100874.03;;;18.62;96.52
75886;BME280;64561;44.018;10.144;2023-06-14T03:55:02;100868.84;;;18.62;96.51
75886;BME280;64561;44.018;10.144;2023-06-14T03:57:32;100876.59;;;18.65;96.65
75886;BME280;64561;44.018;10.144;2023-06-14T04:00:00;100877.44;;;18.67;96.66
75886;BME280;64561;44.018;10.144;2023-06-14T04:02:29;100878.31;;;18.66;96.55
75886;BME280;64561;44.018;10.144;2023-06-14T04:04:58;100881.75;;;18.68;96.66
75886;BME280;64561;44.018;10.144;2023-06-14T04:07:29;100885.19;;;18.70;96.02
75886;BME280;64561;44.018;10.144;2023-06-14T04:09:57;100889.59;;;18.62;95.98
75886;BME280;64561;44.018;10.144;2023-06-14T04:12:24;100893.81;;;18.74;93.88
75886;BME280;64561;44.018;10.144;2023-06-14T04:14:52;100892.97;;;18.73;93.57
75886;BME280;64561;44.018;10.144;2023-06-14T04:17:19;100900.78;;;18.66;94.70
75886;BME280;64561;44.018;10.144;2023-06-14T04:19:46;100901.59;;;18.71;93.76
75886;BME280;64561;44.018;10.144;2023-06-14T04:22:14;100900.75;;;18.69;93.31
75886;BME280;64561;44.018;10.144;2023-06-14T04:24:41;100908.50;;;18.70;92.90
75886;BME280;64561;44.018;10.144;2023-06-14T04:27:10;100906.78;;;18.72;93.73
75886;BME280;64561;44.018;10.144;2023-06-14T04:29:38;100914.47;;;18.85;92.92
75886;BME280;64561;44.018;10.144;2023-06-14T04:32:09;100916.28;;;18.78;93.38
75886;BME280;64561;44.018;10.144;2023-06-14T04:34:38;100911.97;;;18.71;94.65
75886;BME280;64561;44.018;10.144;2023-06-14T04:37:07;100917.16;;;18.69;93.40
75886;BME280;64561;44.018;10.144;2023-06-14T04:39:39;100917.16;;;18.69;93.56
75886;BME280;64561;44.018;10.144;2023-06-14T04:42:06;100917.19;;;18.66;94.71
75886;BME280;64561;44.018;10.144;2023-06-14T04:44:34;100912.88;;;18.68;95.46
75886;BME280;64561;44.018;10.144;2023-06-14T04:47:04;100911.13;;;18.69;95.92
75886;BME280;64561;44.018;10.144;2023-06-14T04:49:31;100908.44;;;18.83;95.62
75886;BME280;64561;44.018;10.144;2023-06-14T04:52:00;100911.84;;;18.89;94.04
75886;BME280;64561;44.018;10.144;2023-06-14T04:54:34;100911.81;;;18.91;93.86
75886;BME280;64561;44.018;10.144;2023-06-14T04:57:08;100911.81;;;18.94;94.88
75886;BME280;64561;44.018;10.144;2023-06-14T04:59:36;100913.53;;;18.93;94.95
75886;BME280;64561;44.018;10.144;2023-06-14T05:02:03;100911.00;;;18.87;95.52
75886;BME280;64561;44.018;10.144;2023-06-14T05:04:30;100899.75;;;18.90;96.89
75886;BME280;64561;44.018;10.144;2023-06-14T05:06:58;100899.81;;;18.84;96.97
75886;BME280;64561;44.018;10.144;2023-06-14T05:09:25;100895.38;;;18.92;95.27
75886;BME280;64561;44.018;10.144;2023-06-14T05:11:52;100894.47;;;18.98;94.02
75886;BME280;64561;44.018;10.144;2023-06-14T05:14:20;100895.38;;;18.92;95.14
75886;BME280;64561;44.018;10.144;2023-06-14T05:16:50;100901.47;;;18.91;95.69
75886;BME280;64561;44.018;10.144;2023-06-14T05:19:17;100893.69;;;18.92;96.71
75886;BME280;64561;44.018;10.144;2023-06-14T05:21:45;100894.50;;;18.94;97.77
75886;BME280;64561;44.018;10.144;2023-06-14T05:24:13;100891.91;;;18.96;97.86
75886;BME280;64561;44.018;10.144;2023-06-14T05:26:40;100893.59;;;19.00;98.25
75886;BME280;64561;44.018;10.144;2023-06-14T05:29:07;100889.25;;;19.02;98.50
75886;BME280;64561;44.018;10.144;2023-06-14T05:31:34;100887.47;;;19.04;98.40
75886;BME280;64561;44.018;10.144;2023-06-14T05:34:02;100883.16;;;19.06;98.38
75886;BME280;64561;44.018;10.144;2023-06-14T05:36:29;100879.66;;;19.09;98.51
75886;BME280;64561;44.018;10.144;2023-06-14T05:38:57;100886.53;;;19.13;98.42
75886;BME280;64561;44.018;10.144;2023-06-14T05:41:27;100885.63;;;19.18;98.44
75886;BME280;64561;44.018;10.144;2023-06-14T05:43:56;100883.03;;;19.20;98.62
75886;BME280;64561;44.018;10.144;2023-06-14T05:46:23;100876.09;;;19.21;98.81
75886;BME280;64561;44.018;10.144;2023-06-14T05:48:55;100882.13;;;19.21;98.69
75886;BME280;64561;44.018;10.144;2023-06-14T05:51:22;100876.06;;;19.24;98.41
75886;BME280;64561;44.018;10.144;2023-06-14T05:53:52;100887.28;;;19.26;98.33
75886;BME280;64561;44.018;10.144;2023-06-14T05:56:19;100888.13;;;19.25;98.41
75886;BME280;64561;44.018;10.144;2023-06-14T05:58:46;100893.28;;;19.29;98.45
75886;BME280;64561;44.018;10.144;2023-06-14T06:01:14;100897.59;;;19.32;97.77
75886;BME280;64561;44.018;10.144;2023-06-14T06:03:42;100902.78;;;19.32;97.45
75886;BME280;64561;44.018;10.144;2023-06-14T06:06:13;100904.50;;;19.33;97.50
75886;BME280;64561;44.018;10.144;2023-06-14T06:08:41;100908.78;;;19.35;97.56
75886;BME280;64561;44.018;10.144;2023-06-14T06:11:08;100910.50;;;19.38;97.74
75886;BME280;64561;44.018;10.144;2023-06-14T06:13:35;100913.06;;;19.39;97.70
75886;BME280;64561;44.018;10.144;2023-06-14T06:16:03;100921.66;;;19.43;97.39
75886;BME280;64561;44.018;10.144;2023-06-14T06:18:30;100909.56;;;19.42;96.46
75886;BME280;64561;44.018;10.144;2023-06-14T06:20:57;100914.72;;;19.45;95.76
75886;BME280;64561;44.018;10.144;2023-06-14T06:23:24;100914.69;;;19.48;95.97
75886;BME280;64561;44.018;10.144;2023-06-14T06:25:51;100918.13;;;19.52;95.99
75886;BME280;64561;44.018;10.144;2023-06-14T06:28:18;100926.66;;;19.61;94.97
75886;BME280;64561;44.018;10.144;2023-06-14T06:30:46;100918.03;;;19.59;94.29
75886;BME280;64561;44.018;10.144;2023-06-14T06:33:13;100918.00;;;19.66;94.71
75886;BME280;64561;44.018;10.144;2023-06-14T06:35:41;100922.31;;;19.67;93.56
75886;BME280;64561;44.018;10.144;2023-06-14T06:38:08;100923.16;;;19.69;93.98
75886;BME280;64561;44.018;10.144;2023-06-14T06:40:37;100936.97;;;19.71;93.41
75886;BME280;64561;44.018;10.144;2023-06-14T06:43:04;100932.59;;;19.73;94.05
75886;BME280;64561;44.018;10.144;2023-06-14T06:45:39;100933.47;;;19.75;93.43
75886;BME280;64561;44.018;10.144;2023-06-14T06:48:07;100922.25;;;19.71;93.27
75886;BME280;64561;44.018;10.144;2023-06-14T06:50:34;100929.97;;;19.76;93.84
75886;BME280;64561;44.018;10.144;2023-06-14T06:53:01;100921.34;;;19.77;93.15
75886;BME280;64561;44.018;10.144;2023-06-14T06:55:28;100936.88;;;19.80;93.49
75886;BME280;64561;44.018;10.144;2023-06-14T06:57:55;100926.44;;;19.81;93.29
75886;BME280;64561;44.018;10.144;2023-06-14T07:00:22;100935.00;;;19.88;91.75
75886;BME280;64561;44.018;10.144;2023-06-14T07:02:52;100934.97;;;19.91;92.26
75886;BME280;64561;44.018;10.144;2023-06-14T07:05:22;100938.38;;;19.96;92.25
75886;BME280;64561;44.018;10.144;2023-06-14T07:07:49;100934.03;;;19.98;92.20
75886;BME280;64561;44.018;10.144;2023-06-14T07:10:16;100940.03;;;20.00;92.91
75886;BME280;64561;44.018;10.144;2023-06-14T07:12:44;100937.41;;;20.05;93.86
75886;BME280;64561;44.018;10.144;2023-06-14T07:15:11;100939.97;;;20.08;90.76
75886;BME280;64561;44.018;10.144;2023-06-14T07:17:39;100941.66;;;20.10;91.82
75886;BME280;64561;44.018;10.144;2023-06-14T07:20:07;100934.69;;;20.13;92.16
75886;BME280;64561;44.018;10.144;2023-06-14T07:22:41;100937.19;;;20.22;93.06
75886;BME280;64561;44.018;10.144;2023-06-14T07:25:12;100936.22;;;20.27;93.41
75886;BME280;64561;44.018;10.144;2023-06-14T07:27:44;100934.22;;;20.45;89.24
75886;BME280;64561;44.018;10.144;2023-06-14T07:30:12;100933.38;;;20.46;88.08
75886;BME280;64561;44.018;10.144;2023-06-14T07:32:39;100936.81;;;20.46;88.69
75886;BME280;64561;44.018;10.144;2023-06-14T07:35:07;100941.94;;;20.51;89.84
75886;BME280;64561;44.018;10.144;2023-06-14T07:37:34;100934.97;;;20.51;91.21
75886;BME280;64561;44.018;10.144;2023-06-14T07:40:01;100936.75;;;20.52;91.64
75886;BME280;64561;44.018;10.144;2023-06-14T07:42:34;100935.66;;;20.66;91.37
75886;BME280;64561;44.018;10.144;2023-06-14T07:45:03;100935.56;;;20.73;89.83
75886;BME280;64561;44.018;10.144;2023-06-14T07:47:30;100943.16;;;20.84;89.69
75886;BME280;64561;44.018;10.144;2023-06-14T07:49:57;100942.97;;;20.96;87.97
75886;BME280;64561;44.018;10.144;2023-06-14T07:52:24;100950.44;;;21.15;87.18
75886;BME280;64561;44.018;10.144;2023-06-14T07:54:52;100948.50;;;21.26;82.85
75886;BME280;64561;44.018;10.144;2023-06-14T07:57:19;100955.31;;;21.36;81.03
75886;BME280;64561;44.018;10.144;2023-06-14T07:59:47;100951.84;;;21.34;80.32
75886;BME280;64561;44.018;10.144;2023-06-14T08:02:14;100951.91;;;21.31;81.09
75886;BME280;64561;44.018;10.144;2023-06-14T08:04:41;100954.41;;;21.37;82.65
75886;BME280;64561;44.018;10.144;2023-06-14T08:07:09;100952.53;;;21.44;80.34
75886;BME280;64561;44.018;10.144;2023-06-14T08:09:36;100958.50;;;21.51;78.72
75886;BME280;64561;44.018;10.144;2023-06-14T08:12:06;100956.53;;;21.62;78.95
75886;BME280;64561;44.018;10.144;2023-06-14T08:14:37;100961.63;;;21.68;80.18
75886;BME280;64561;44.018;10.144;2023-06-14T08:17:04;100967.63;;;21.73;76.91
75886;BME280;64561;44.018;10.144;2023-06-14T08:19:31;100970.16;;;21.76;77.01
75886;BME280;64561;44.018;10.144;2023-06-14T08:21:58;100978.81;;;21.78;77.10
75886;BME280;64561;44.018;10.144;2023-06-14T08:24:26;100972.63;;;21.82;77.67
75886;BME280;64561;44.018;10.144;2023-06-14T08:26:55;100982.41;;;21.71;76.26
75886;BME280;64561;44.018;10.144;2023-06-14T08:29:23;100975.56;;;21.67;79.14
75886;BME280;64561;44.018;10.144;2023-06-14T08:31:50;100979.84;;;21.68;79.15
75886;BME280;64561;44.018;10.144;2023-06-14T08:34:17;100980.78;;;21.65;77.17
75886;BME280;64561;44.018;10.144;2023-06-14T08:36:44;100982.50;;;21.66;78.72
75886;BME280;64561;44.018;10.144;2023-06-14T08:39:11;100984.28;;;21.63;78.80
75886;BME280;64561;44.018;10.144;2023-06-14T08:41:38;100980.88;;;21.61;76.44
75886;BME280;64561;44.018;10.144;2023-06-14T08:44:05;100978.34;;;21.56;79.22
75886;BME280;64561;44.018;10.144;2023-06-14T08:46:36;100975.72;;;21.58;76.18
75886;BME280;64561;44.018;10.144;2023-06-14T08:49:04;100976.59;;;21.58;77.58
75886;BME280;64561;44.018;10.144;2023-06-14T08:51:35;100978.28;;;21.61;77.26
75886;BME280;64561;44.018;10.144;2023-06-14T08:54:03;100972.88;;;21.70;76.24
75886;BME280;64561;44.018;10.144;2023-06-14T08:56:34;100977.97;;;21.75;75.79
75886;BME280;64561;44.018;10.144;2023-06-14T08:59:05;100978.97;;;21.69;76.66
75886;BME280;64561;44.018;10.144;2023-06-14T09:01:34;100975.25;;;21.81;76.80
75886;BME280;64561;44.018;10.144;2023-06-14T09:04:01;100975.44;;;21.72;75.78
75886;BME280;64561;44.018;10.144;2023-06-14T09:06:29;100978.03;;;21.73;78.19
75886;BME280;64561;44.018;10.144;2023-06-14T09:08:56;100975.88;;;21.94;78.11
75886;BME280;64561;44.018;10.144;2023-06-14T09:11:24;100955.91;;;21.92;77.07
75886;BME280;64561;44.018;10.144;2023-06-14T09:13:52;100964.16;;;22.13;74.67
75886;BME280;64561;44.018;10.144;2023-06-14T09:16:19;100967.59;;;22.15;75.85
75886;BME280;64561;44.018;10.144;2023-06-14T09:18:47;100956.88;;;22.30;75.06
75886;BME280;64561;44.018;10.144;2023-06-14T09:21:16;100953.41;;;22.30;74.15
75886;BME280;64561;44.018;10.144;2023-06-14T09:23:45;100951.94;;;22.55;75.76
75886;BME280;64561;44.018;10.144;2023-06-14T09:26:16;100949.22;;;22.60;73.72
75886;BME280;64561;44.018;10.144;2023-06-14T09:28:45;100955.38;;;22.57;75.02
75886;BME280;64561;44.018;10.144;2023-06-14T09:31:17;100954.16;;;22.71;74.05
75886;BME280;64561;44.018;10.144;2023-06-14T09:33:45;100956.44;;;22.85;73.50
75886;BME280;64561;44.018;10.144;2023-06-14T09:36:16;100958.94;;;22.89;70.00
75886;BME280;64561;44.018;10.144;2023-06-14T09:39:03;100954.00;;;22.78;71.72
75886;BME280;64561;44.018;10.144;2023-06-14T09:41:38;100952.00;;;22.90;71.11
75886;BME280;64561;44.018;10.144;2023-06-14T09:44:10;100953.44;;;23.01;72.10
75886;BME280;64561;44.018;10.144;2023-06-14T09:46:44;100947.91;;;23.14;74.99
75886;BME280;64561;44.018;10.144;2023-06-14T09:49:12;100939.00;;;23.21;70.09
75886;BME280;64561;44.018;10.144;2023-06-14T09:51:45;100934.47;;;23.27;69.83
75886;BME280;64561;44.018;10.144;2023-06-14T09:54:15;100932.16;;;23.17;72.90
75886;BME280;64561;44.018;10.144;2023-06-14T09:56:47;100931.94;;;23.26;70.34
75886;BME280;64561;44.018;10.144;2023-06-14T09:59:19;100930.66;;;23.41;74.29
75886;BME280;64561;44.018;10.144;2023-06-14T10:01:49;100927.94;;;23.44;69.84
75886;BME280;64561;44.018;10.144;2023-06-14T10:04:19;100933.97;;;23.46;68.23
75886;BME280;64561;44.018;10.144;2023-06-14T10:06:50;100932.22;;;23.46;69.50
75886;BME280;64561;44.018;10.144;2023-06-14T10:09:17;100927.91;;;23.45;67.62
75886;BME280;64561;44.018;10.144;2023-06-14T10:11:45;100930.50;;;23.45;64.48
75886;BME280;64561;44.018;10.144;2023-06-14T10:14:15;100931.75;;;23.32;67.27
75886;BME280;64561;44.018;10.144;2023-06-14T10:17:06;100927.25;;;23.37;69.97
75886;BME280;64561;44.018;10.144;2023-06-14T10:19:48;100928.28;;;23.32;70.09
75886;BME280;64561;44.018;10.144;2023-06-14T10:22:55;100924.94;;;23.26;71.54
75886;BME280;64561;44.018;10.144;2023-06-14T10:25:29;100932.03;;;23.21;69.32
75886;BME280;64561;44.018;10.144;2023-06-14T10:33:32;100923.94;;;22.98;75.49
75886;BME280;64561;44.018;10.144;2023-06-14T10:36:31;100923.34;;;22.87;74.02
75886;BME280;64561;44.018;10.144;2023-06-14T10:39:07;100913.25;;;22.73;74.80
75886;BME280;64561;44.018;10.144;2023-06-14T10:41:40;100919.41;;;22.70;75.83
75886;BME280;64561;44.018;10.144;2023-06-14T10:46:41;100926.31;;;22.71;70.36
75886;BME280;64561;44.018;10.144;2023-06-14T10:49:12;100926.44;;;22.67;71.57
75886;BME280;64561;44.018;10.144;2023-06-14T10:51:45;100925.59;;;22.66;71.44
75886;BME280;64561;44.018;10.144;2023-06-14T10:54:16;100925.47;;;22.71;68.12
75886;BME280;64561;44.018;10.144;2023-06-14T10:56:49;100929.06;;;22.67;70.97
75886;BME280;64561;44.018;10.144;2023-06-14T10:59:17;100917.00;;;22.63;72.43
75886;BME280;64561;44.018;10.144;2023-06-14T11:04:17;100913.34;;;22.68;70.82
75886;BME280;64561;44.018;10.144;2023-06-14T11:06:48;100922.00;;;22.70;72.40
75886;BME280;64561;44.018;10.144;2023-06-14T11:11:51;100931.41;;;22.77;72.62
75886;BME280;64561;44.018;10.144;2023-06-14T11:14:23;100926.19;;;22.77;69.81
75886;BME280;64561;44.018;10.144;2023-06-14T11:16:51;100920.00;;;22.81;70.67
75886;BME280;64561;44.018;10.144;2023-06-14T11:19:18;100923.38;;;22.85;70.43
75886;BME280;64561;44.018;10.144;2023-06-14T11:21:47;100917.31;;;22.85;69.90
75886;BME280;64561;44.018;10.144;2023-06-14T11:24:14;100911.00;;;22.93;68.40
75886;BME280;64561;44.018;10.144;2023-06-14T11:26:42;100901.41;;;22.94;69.29
75886;BME280;64561;44.018;10.144;2023-06-14T11:29:09;100905.66;;;22.99;68.97
75886;BME280;64561;44.018;10.144;2023-06-14T11:31:36;100901.47;;;23.25;68.04
75886;BME280;64561;44.018;10.144;2023-06-14T11:34:04;100901.19;;;23.36;67.85
75886;BME280;64561;44.018;10.144;2023-06-14T11:36:33;100899.66;;;23.58;67.54
75886;BME280;64561;44.018;10.144;2023-06-14T11:39:05;100894.34;;;23.61;64.53
75886;BME280;64561;44.018;10.144;2023-06-14T11:44:06;100885.63;;;23.62;64.20
75886;BME280;64561;44.018;10.144;2023-06-14T11:46:34;100884.78;;;23.62;62.31
75886;BME280;64561;44.018;10.144;2023-06-14T11:49:02;100878.94;;;23.52;65.20
75886;BME280;64561;44.018;10.144;2023-06-14T11:51:35;100887.84;;;23.45;64.41
75886;BME280;64561;44.018;10.144;2023-06-14T11:54:03;100888.03;;;23.39;68.04
75886;BME280;64561;44.018;10.144;2023-06-14T11:56:31;100888.38;;;23.26;67.71
75886;BME280;64561;44.018;10.144;2023-06-14T11:58:59;100875.59;;;23.16;70.28
75886;BME280;64561;44.018;10.144;2023-06-14T12:01:30;100871.50;;;23.07;71.62
75886;BME280;64561;44.018;10.144;2023-06-14T12:03:59;100881.22;;;23.02;72.75
75886;BME280;64561;44.018;10.144;2023-06-14T12:06:28;100867.19;;;23.06;73.42
75886;BME280;64561;44.018;10.144;2023-06-14T12:09:02;100868.72;;;23.13;74.38
75886;BME280;64561;44.018;10.144;2023-06-14T12:11:35;100868.50;;;23.21;72.36
75886;BME280;64561;44.018;10.144;2023-06-14T12:14:08;100866.38;;;23.35;71.36
75886;BME280;64561;44.018;10.144;2023-06-14T12:16:38;100862.56;;;23.47;68.78
75886;BME280;64561;44.018;10.144;2023-06-14T12:19:14;100863.75;;;23.35;70.68
75886;BME280;64561;44.018;10.144;2023-06-14T12:21:45;100871.59;;;23.35;68.24
75886;BME280;64561;44.018;10.144;2023-06-14T12:24:14;100871.50;;;23.38;66.57
75886;BME280;64561;44.018;10.144;2023-06-14T12:26:42;100866.88;;;23.48;66.38
75886;BME280;64561;44.018;10.144;2023-06-14T12:29:10;100871.09;;;23.52;65.17
75886;BME280;64561;44.018;10.144;2023-06-14T12:31:40;100866.41;;;23.63;67.78
75886;BME280;64561;44.018;10.144;2023-06-14T12:34:10;100860.56;;;23.85;68.06
75886;BME280;64561;44.018;10.144;2023-06-14T12:36:37;100857.53;;;23.99;66.98
75886;BME280;64561;44.018;10.144;2023-06-14T12:39:12;100864.25;;;24.07;66.13
75886;BME280;64561;44.018;10.144;2023-06-14T12:41:39;100866.31;;;24.24;66.37
75886;BME280;64561;44.018;10.144;2023-06-14T12:44:11;100864.88;;;24.42;62.71
75886;BME280;64561;44.018;10.144;2023-06-14T12:46:38;100862.88;;;24.50;61.11
75886;BME280;64561;44.018;10.144;2023-06-14T12:49:10;100860.06;;;24.56;64.45
75886;BME280;64561;44.018;10.144;2023-06-14T12:51:39;100867.19;;;24.51;60.72
75886;BME280;64561;44.018;10.144;2023-06-14T12:54:07;100859.66;;;24.42;61.17
75886;BME280;64561;44.018;10.144;2023-06-14T12:56:34;100861.78;;;24.29;61.67
75886;BME280;64561;44.018;10.144;2023-06-14T12:59:04;100868.94;;;24.24;62.88
75886;BME280;64561;44.018;10.144;2023-06-14T13:01:31;100875.81;;;24.27;65.06
75886;BME280;64561;44.018;10.144;2023-06-14T13:03:58;100871.69;;;24.19;62.42
75886;BME280;64561;44.018;10.144;2023-06-14T13:06:25;100879.97;;;24.06;63.63
75886;BME280;64561;44.018;10.144;2023-06-14T13:08:53;100875.31;;;23.87;63.79